createdAt,value
2023-01-27T00:02:12.880Z,27.40
2023-01-27T00:05:39.963Z,28.20
2023-01-27T00:09:07.390Z,29.10
2023-01-27T00:12:52.088Z,28.10
2023-01-27T00:16:19.222Z,24.80
2023-01-27T00:19:46.181Z,29.20
2023-01-27T00:23:35.941Z,31.70
2023-01-27T00:27:03.257Z,30.80
2023-01-27T00:30:30.264Z,26.60
2023-01-27T00:34:02.282Z,26.90
2023-01-27T00:37:29.465Z,25.50
2023-01-27T00:41:15.072Z,25.10
2023-01-27T00:45:03.553Z,24.30
2023-01-27T00:48:30.974Z,25.50
2023-01-27T00:51:58.050Z,23.80
2023-01-27T00:55:25.499Z,22.60
2023-01-27T00:58:52.610Z,19.10
2023-01-27T01:02:19.627Z,23.20
2023-01-27T01:05:47.130Z,29.20
2023-01-27T01:09:14.593Z,20.10
2023-01-27T01:12:41.679Z,27.10
2023-01-27T01:16:11.800Z,28.50
2023-01-27T01:19:39.554Z,26.60
2023-01-27T01:23:07.056Z,20.60
2023-01-27T01:26:34.702Z,14.30
2023-01-27T01:30:02.477Z,28.40
2023-01-27T01:33:29.844Z,25.90
2023-01-27T01:36:58.355Z,27.90
2023-01-27T01:40:26.109Z,26.60
2023-01-27T01:43:53.948Z,29.20
2023-01-27T01:47:21.786Z,30.10
2023-01-27T01:50:56.101Z,30.60
2023-01-27T01:54:27.044Z,26.90
2023-01-27T01:57:58.134Z,25.90
2023-01-27T02:01:25.193Z,21.30
2023-01-27T02:04:59.264Z,24.10
2023-01-27T02:08:30.744Z,31.00
2023-01-27T02:11:59.524Z,16.70
2023-01-27T02:15:26.911Z,22.00
2023-01-27T02:18:54.139Z,34.30
2023-01-27T02:22:27.211Z,24.60
2023-01-27T02:25:59.330Z,29.50
2023-01-27T02:29:28.886Z,32.30
2023-01-27T02:32:56.055Z,29.50
2023-01-27T02:36:28.665Z,34.30
2023-01-27T02:39:59.406Z,30.50
2023-01-27T02:43:27.346Z,18.80
2023-01-27T02:46:55.031Z,32.00
2023-01-27T02:50:22.216Z,31.70
2023-01-27T02:53:49.410Z,24.10
2023-01-27T02:57:16.345Z,31.10
2023-01-27T03:00:53.579Z,31.90
2023-01-27T03:04:20.866Z,27.40
2023-01-27T03:07:47.915Z,23.30
2023-01-27T03:11:15.261Z,27.60
2023-01-27T03:15:00.315Z,23.90
2023-01-27T03:18:28.741Z,28.20
2023-01-27T03:21:56.293Z,30.40
2023-01-27T03:25:25.218Z,27.90
2023-01-27T03:29:08.912Z,30.80
2023-01-27T03:32:38.677Z,27.10
2023-01-27T03:36:44.136Z,28.80
2023-01-27T03:40:32.732Z,28.80
2023-01-27T03:44:17.457Z,30.60
2023-01-27T03:47:44.709Z,30.90
2023-01-27T03:51:13.008Z,27.40
2023-01-27T03:54:40.297Z,28.10
2023-01-27T03:58:18.531Z,30.20
2023-01-27T04:01:45.673Z,26.20
2023-01-27T04:05:30.975Z,27.90
2023-01-27T04:08:58.886Z,29.00
2023-01-27T04:12:26.111Z,30.40
2023-01-27T04:15:56.901Z,21.60
2023-01-27T04:19:24.026Z,29.80
2023-01-27T04:22:51.031Z,24.80
2023-01-27T04:26:17.963Z,24.30
2023-01-27T04:29:45.705Z,22.70
2023-01-27T04:33:15.303Z,30.00
2023-01-27T04:36:42.972Z,24.30
2023-01-27T04:40:13.377Z,29.10
2023-01-27T04:43:40.356Z,29.40
2023-01-27T04:47:07.651Z,42.40
2023-01-27T04:50:34.837Z,30.20
2023-01-27T04:54:03.923Z,29.90
2023-01-27T04:57:31.249Z,97.60
2023-01-27T05:00:58.400Z,34.20
2023-01-27T05:04:26.510Z,31.20
2023-01-27T05:07:53.684Z,33.00
2023-01-27T05:11:21.399Z,22.80
2023-01-27T05:14:48.476Z,31.70
2023-01-27T05:18:15.924Z,32.70
2023-01-27T05:21:44.481Z,33.40
2023-01-27T05:25:12.528Z,19.60
2023-01-27T05:28:41.722Z,37.00
2023-01-27T05:32:08.927Z,29.50
2023-01-27T05:35:37.420Z,31.80
2023-01-27T05:39:05.277Z,33.60
2023-01-27T05:42:33.142Z,33.40
2023-01-27T05:46:12.316Z,37.50
2023-01-27T05:49:39.407Z,36.40
2023-01-27T05:53:06.516Z,35.90
2023-01-27T05:56:33.964Z,40.60
2023-01-27T06:00:00.893Z,38.70
2023-01-27T06:03:28.448Z,34.70
2023-01-27T06:06:55.459Z,36.40
2023-01-27T06:10:22.324Z,35.60
2023-01-27T06:13:49.792Z,37.20
2023-01-27T06:17:17.598Z,45.40
2023-01-27T06:20:45.248Z,40.90
2023-01-27T06:24:13.737Z,40.40
2023-01-27T06:27:41.084Z,38.70
2023-01-27T06:31:12.901Z,38.90
2023-01-27T06:34:40.246Z,39.80
2023-01-27T06:38:08.916Z,38.90
2023-01-27T06:41:35.931Z,28.90
2023-01-27T06:45:03.017Z,45.30
2023-01-27T06:48:30.388Z,40.00
2023-01-27T06:51:57.449Z,40.20
2023-01-27T06:55:24.730Z,37.10
2023-01-27T06:58:51.863Z,30.00
2023-01-27T07:02:19.056Z,31.20
2023-01-27T07:05:46.877Z,30.40
2023-01-27T07:09:13.960Z,28.10
2023-01-27T07:12:40.962Z,27.80
2023-01-27T07:16:08.836Z,21.00
2023-01-27T07:19:36.079Z,13.60
2023-01-27T07:23:04.852Z,28.10
2023-01-27T07:26:32.337Z,34.50
2023-01-27T07:29:59.359Z,21.20
2023-01-27T07:33:27.056Z,24.20
2023-01-27T07:36:54.302Z,26.80
2023-01-27T07:40:22.387Z,24.50
2023-01-27T07:43:51.654Z,29.60
2023-01-27T07:47:19.504Z,43.70
2023-01-27T07:50:46.604Z,31.70
2023-01-27T07:54:13.916Z,24.80
2023-01-27T07:57:40.808Z,23.60
2023-01-27T08:01:09.906Z,39.60
2023-01-27T08:04:47.204Z,21.60
2023-01-27T08:08:20.279Z,21.20
2023-01-27T08:11:47.241Z,27.70
2023-01-27T08:15:17.703Z,27.40
2023-01-27T08:18:45.919Z,26.00
2023-01-27T08:22:19.813Z,31.20
2023-01-27T08:25:52.120Z,29.30
2023-01-27T08:29:19.135Z,31.20
2023-01-27T08:32:46.592Z,28.70
2023-01-27T08:36:16.852Z,25.30
2023-01-27T08:39:44.021Z,31.90
2023-01-27T08:43:11.860Z,26.40
2023-01-27T08:46:38.832Z,28.70
2023-01-27T08:50:06.748Z,15.90
2023-01-27T08:53:34.032Z,16.20
2023-01-27T08:57:01.117Z,21.80
2023-01-27T09:00:28.555Z,23.70
2023-01-27T09:03:55.543Z,23.50
2023-01-27T09:07:23.033Z,29.80
2023-01-27T09:10:50.066Z,17.80
2023-01-27T09:14:17.195Z,16.10
2023-01-27T09:17:45.218Z,23.00
2023-01-27T09:21:12.581Z,25.30
2023-01-27T09:24:39.567Z,28.40
2023-01-27T09:28:06.821Z,32.90
2023-01-27T09:31:34.555Z,27.40
2023-01-27T09:35:02.173Z,27.30
2023-01-27T09:38:32.659Z,19.80
2023-01-27T09:42:21.132Z,23.60
2023-01-27T09:46:03.066Z,24.30
2023-01-27T09:49:43.317Z,21.80
2023-01-27T09:53:27.563Z,25.20
2023-01-27T09:57:06.751Z,25.20
2023-01-27T10:00:44.841Z,27.90
2023-01-27T10:04:31.521Z,28.30
2023-01-27T10:08:29.954Z,24.40
2023-01-27T10:12:07.192Z,24.00
2023-01-27T10:15:45.168Z,18.00
2023-01-27T10:19:31.777Z,20.00
2023-01-27T10:23:10.406Z,14.90
2023-01-27T10:26:43.188Z,20.80
2023-01-27T10:30:15.348Z,13.40
2023-01-27T10:33:51.827Z,21.10
2023-01-27T10:37:28.445Z,24.90
2023-01-27T10:41:06.135Z,26.40
2023-01-27T10:44:59.849Z,19.80
2023-01-27T10:48:35.956Z,21.70
2023-01-27T10:52:10.017Z,24.20
2023-01-27T10:55:43.332Z,25.80
2023-01-27T10:59:18.033Z,24.10
2023-01-27T11:02:51.024Z,25.60
2023-01-27T11:06:21.510Z,21.50
2023-01-27T11:09:56.702Z,26.00
2023-01-27T11:13:23.722Z,20.30
2023-01-27T11:16:52.653Z,25.00
2023-01-27T11:20:30.824Z,24.30
2023-01-27T11:24:02.140Z,25.80
2023-01-27T11:27:50.343Z,25.30
2023-01-27T11:31:37.701Z,22.90
2023-01-27T11:35:10.379Z,25.90
2023-01-27T11:38:38.174Z,24.60
2023-01-27T11:42:06.695Z,24.10
2023-01-27T11:45:38.196Z,23.60
2023-01-27T11:49:06.388Z,18.30
2023-01-27T11:52:34.322Z,18.90
2023-01-27T11:56:05.855Z,24.90
2023-01-27T11:59:39.626Z,15.80
2023-01-27T12:03:17.749Z,25.30
2023-01-27T12:06:48.682Z,22.90
2023-01-27T12:10:30.582Z,24.90
2023-01-27T12:14:00.207Z,26.30
2023-01-27T12:17:34.222Z,25.10
2023-01-27T12:21:03.511Z,23.90
2023-01-27T12:24:33.676Z,26.30
2023-01-27T12:28:04.147Z,28.30
2023-01-27T12:31:34.363Z,30.30
2023-01-27T12:35:03.432Z,49.10
2023-01-27T12:38:35.849Z,30.20
2023-01-27T12:42:03.016Z,21.10
2023-01-27T12:45:35.036Z,23.40
2023-01-27T12:49:14.719Z,19.70
2023-01-27T12:56:16.126Z,35.00
2023-01-27T12:59:49.699Z,30.80
2023-01-27T13:03:17.484Z,30.80
2023-01-27T13:06:50.430Z,30.30
2023-01-27T13:10:23.558Z,27.70
2023-01-27T13:13:53.864Z,46.60
2023-01-27T13:17:37.588Z,30.90
2023-01-27T13:21:14.337Z,31.30
2023-01-27T13:24:43.840Z,45.60
2023-01-27T13:28:15.163Z,33.60
2023-01-27T13:31:47.191Z,29.40
2023-01-27T13:35:23.900Z,23.70
2023-01-27T13:38:56.863Z,29.00
2023-01-27T13:42:30.134Z,25.80
2023-01-27T13:46:03.867Z,21.80
2023-01-27T13:49:37.875Z,27.20
2023-01-27T13:53:07.165Z,40.30
2023-01-27T13:56:49.612Z,46.10
2023-01-27T14:00:23.984Z,33.70
2023-01-27T14:04:24.048Z,29.40
2023-01-27T14:07:59.411Z,30.10
2023-01-27T14:11:33.931Z,27.10
2023-01-27T14:15:16.026Z,30.10
2023-01-27T14:18:47.885Z,21.40
2023-01-27T14:22:25.604Z,44.80
2023-01-27T14:26:07.636Z,27.80
2023-01-27T14:29:40.620Z,29.30
2023-01-27T14:33:16.898Z,32.30
2023-01-27T14:36:52.907Z,30.70
2023-01-27T14:40:27.594Z,28.90
2023-01-27T14:44:03.609Z,27.70
2023-01-27T14:47:40.031Z,32.30
2023-01-27T14:51:15.715Z,33.20
2023-01-27T14:55:05.297Z,30.20
2023-01-27T14:58:43.923Z,31.20
2023-01-27T15:02:29.706Z,23.50
2023-01-27T15:06:03.993Z,34.50
2023-01-27T15:09:43.784Z,29.70
2023-01-27T15:13:33.265Z,33.20
2023-01-27T15:17:21.945Z,32.40
2023-01-27T15:21:18.695Z,24.50
2023-01-27T15:25:02.616Z,35.40
2023-01-27T15:28:32.920Z,32.00
2023-01-27T15:32:29.391Z,26.70
2023-01-27T15:36:20.754Z,36.40
2023-01-27T15:40:05.497Z,19.90
2023-01-27T15:43:38.051Z,27.90
2023-01-27T15:47:13.859Z,33.80
2023-01-27T15:50:50.335Z,33.10
2023-01-27T15:54:20.560Z,40.30
2023-01-27T15:57:47.753Z,39.30
2023-01-27T16:01:27.991Z,38.90
2023-01-27T16:05:06.723Z,44.90
2023-01-27T16:08:43.056Z,43.80
2023-01-27T16:12:39.802Z,23.70
2023-01-27T16:16:33.952Z,24.40
2023-01-27T16:20:23.263Z,24.10
2023-01-27T16:23:57.662Z,27.20
2023-01-27T16:27:39.435Z,24.00
2023-01-27T16:31:13.989Z,26.40
2023-01-27T16:34:46.513Z,21.90
2023-01-27T16:38:25.501Z,16.40
2023-01-27T16:41:57.871Z,23.40
2023-01-27T16:45:27.698Z,18.70
2023-01-27T16:48:55.344Z,17.40
2023-01-27T16:52:40.423Z,28.40
2023-01-27T16:56:18.964Z,19.70
2023-01-27T16:59:48.077Z,18.40
2023-01-27T17:03:20.315Z,17.10
2023-01-27T17:06:47.745Z,23.70
2023-01-27T17:10:32.982Z,22.80
2023-01-27T17:14:03.328Z,25.80
2023-01-27T17:17:35.515Z,29.90
2023-01-27T17:21:03.751Z,29.80
2023-01-27T17:24:34.445Z,26.90
2023-01-27T17:28:04.135Z,22.40
2023-01-27T17:31:33.041Z,15.40
2023-01-27T17:35:02.964Z,16.30
2023-01-27T17:38:43.835Z,12.10
2023-01-27T17:42:17.070Z,13.20
2023-01-27T17:45:45.212Z,15.60
2023-01-27T17:49:17.606Z,10.50
2023-01-27T17:52:52.405Z,15.60
2023-01-27T17:56:23.197Z,14.50
2023-01-27T17:59:58.622Z,11.30
2023-01-27T18:03:28.257Z,16.30
2023-01-27T18:06:55.908Z,15.10
2023-01-27T18:10:29.351Z,16.70
2023-01-27T18:13:56.962Z,16.70
2023-01-27T18:17:27.651Z,19.30
2023-01-27T18:21:06.740Z,16.10
2023-01-27T18:24:34.447Z,20.30
2023-01-27T18:28:02.041Z,23.50
2023-01-27T18:31:32.240Z,18.40
2023-01-27T18:35:00.527Z,10.30
2023-01-27T18:38:31.097Z,14.60
2023-01-27T18:41:58.152Z,9.80
2023-01-27T18:45:25.592Z,12.20
2023-01-27T18:48:53.331Z,6.70
2023-01-27T18:52:20.739Z,7.00
2023-01-27T18:55:48.365Z,7.50
2023-01-27T18:59:15.530Z,5.70
2023-01-27T19:02:46.502Z,6.20
2023-01-27T19:06:19.157Z,8.30
2023-01-27T19:09:47.662Z,6.60
2023-01-27T19:13:15.799Z,8.00
2023-01-27T19:16:43.139Z,6.80
2023-01-27T19:20:19.792Z,6.90
2023-01-27T19:23:49.579Z,10.10
2023-01-27T19:27:19.077Z,8.30
2023-01-27T19:30:46.916Z,6.80
2023-01-27T19:34:16.714Z,7.10
2023-01-27T19:37:44.550Z,6.90
2023-01-27T19:41:12.499Z,5.20
2023-01-27T19:44:39.735Z,6.00
2023-01-27T19:48:12.312Z,5.60
2023-01-27T19:51:39.665Z,14.60
2023-01-27T19:55:09.251Z,9.70
2023-01-27T19:58:37.725Z,7.40
2023-01-27T20:02:06.416Z,6.50
2023-01-27T20:05:35.734Z,7.70
2023-01-27T20:09:06.136Z,8.90
2023-01-27T20:12:36.383Z,5.80
2023-01-27T20:16:05.749Z,4.40
2023-01-27T20:19:33.813Z,3.50
2023-01-27T20:23:03.029Z,6.40
2023-01-27T20:26:32.535Z,6.00
2023-01-27T20:30:01.373Z,4.50
2023-01-27T20:36:57.877Z,5.30
2023-01-27T20:40:28.667Z,4.80
2023-01-27T20:44:00.755Z,6.10
2023-01-27T20:47:29.120Z,7.20
2023-01-27T20:51:06.107Z,8.50
2023-01-27T20:54:33.973Z,5.70
2023-01-27T20:58:02.272Z,6.20
2023-01-27T21:01:29.664Z,8.10
2023-01-27T21:04:57.677Z,4.80
2023-01-27T21:08:25.334Z,13.60
2023-01-27T21:11:53.141Z,6.10
2023-01-27T21:15:20.611Z,6.90
2023-01-27T21:18:48.359Z,5.80
2023-01-27T21:22:16.758Z,7.20
2023-01-27T21:25:44.625Z,6.90
2023-01-27T21:29:13.528Z,5.90
2023-01-27T21:32:40.863Z,7.60
2023-01-27T21:36:10.983Z,6.10
2023-01-27T21:39:38.126Z,8.10
2023-01-27T21:43:22.943Z,7.40
2023-01-27T21:46:50.431Z,7.80
2023-01-27T21:50:18.831Z,7.70
2023-01-27T21:53:45.873Z,7.60
2023-01-27T21:57:12.959Z,4.90
2023-01-27T22:00:40.273Z,7.90
2023-01-27T22:04:08.021Z,7.10
2023-01-27T22:07:38.333Z,6.40
2023-01-27T22:11:12.273Z,6.00
2023-01-27T22:14:39.567Z,6.90
2023-01-27T22:18:08.920Z,9.20
2023-01-27T22:21:35.939Z,6.80
2023-01-27T22:25:03.051Z,7.00
2023-01-27T22:28:30.215Z,5.70
2023-01-27T22:31:57.549Z,8.70
2023-01-27T22:35:24.641Z,6.90
2023-01-27T22:38:51.853Z,4.80
2023-01-27T22:42:18.824Z,8.10
2023-01-27T22:45:45.928Z,7.50
2023-01-27T22:49:13.032Z,8.20
2023-01-27T22:52:40.698Z,5.30
2023-01-27T22:56:09.579Z,4.10
2023-01-27T22:59:36.556Z,6.50
2023-01-27T23:03:04.056Z,6.30
2023-01-27T23:06:31.059Z,5.70
2023-01-27T23:09:58.108Z,3.80
2023-01-27T23:13:25.011Z,4.90
2023-01-27T23:16:53.003Z,6.50
2023-01-27T23:20:20.727Z,5.10
2023-01-27T23:23:47.868Z,5.60
2023-01-27T23:27:14.822Z,7.50
2023-01-27T23:30:43.663Z,6.00
2023-01-27T23:34:11.081Z,4.00
2023-01-27T23:37:38.196Z,5.40
2023-01-27T23:41:08.224Z,5.10
2023-01-27T23:44:35.183Z,4.50
2023-01-27T23:48:02.245Z,4.00
2023-01-27T23:51:29.251Z,2.80
2023-01-27T23:54:56.403Z,4.70
2023-01-27T23:58:23.979Z,3.20
